Decoded Metar for GCTS (TENERIFE in SPAIN) (IATA:TFS) | Meteo·Mobile Aviation Weather
aviador You're here:

GCTS Decoded Metar

TENERIFE in SPAIN
Report Time2019-03-22 14:00:00
UTC Time2019-03-22 14:23:02
Flight Rules vfr VFR
Wind070° at 24 kt
W.Decomp.*RWY 08: 23.9 kt HW 1.7 kt LCW
W.Rank070° ranks 1
Current wind is above 070° avg. (14.6)
Visibility9999 m
Phenomena:N/A
Clouds:N/A
Expected CloudBase > 4,800 ft AGL from Temp-Dew spread
CeilingNone
Temp22°C (ISA +7)
Dew Point10°C (47% RH)
AAT13.4°C
QNH1015 hPa
Density Alt1,207 ft
Elevation236 ft
Report Wrong Elevation
Raw Report
GCTS 221400Z 07024KT CAVOK 22/10 Q1015 WS R07 NOSIG=

Extra information for GCTS:More info

Metar Taf Metar & Taf Last 4 Metars F.Rules Stats Wind Profile Meteogram Temp Stats Airport Information Weather charts Add Link Nearby VenuesMetar ALERT Operation Metar Decoded Social comments